Time;durP1;ratioP1;P1;durP2;ratioP2;P2;SDS_P1;SDS_P2;PMS_P1;PMS_P2;Temp;Humidity;BMP_temperature;BMP_pressure;BME280_temperature;BME280_humidity;BME280_pressure;Samples;Min_cycle;Max_cycle;Signal;HPM_P1;HPM_P2
2021/12/01 00:00:33;;;;;;;8.43;5.03;;;5.50;81.10;;;;;;4983580;28;20721;-79
2021/12/01 00:03:02;;;;;;;9.77;4.60;;;5.50;81.10;;;;;;4981186;28;20232;-78
2021/12/01 00:05:33;;;;;;;9.37;5.03;;;5.40;80.80;;;;;;4976217;28;20251;-79
2021/12/01 00:08:02;;;;;;;9.03;4.93;;;5.40;80.80;;;;;;4985561;28;20759;-77
2021/12/01 00:10:34;;;;;;;9.83;5.20;;;5.40;80.90;;;;;;4974526;28;20735;-80
2021/12/01 00:13:05;;;;;;;7.70;4.67;;;5.40;80.80;;;;;;4981750;28;20221;-81
2021/12/01 00:15:34;;;;;;;10.40;5.10;;;5.40;80.80;;;;;;4984440;28;20193;-78
2021/12/01 00:18:03;;;;;;;10.83;4.73;;;5.40;80.80;;;;;;4980143;28;20232;-80
2021/12/01 00:20:31;;;;;;;9.93;4.80;;;5.40;81.10;;;;;;4982578;28;20201;-78
2021/12/01 00:22:59;;;;;;;7.97;4.87;;;5.40;81.40;;;;;;4984336;28;20895;-78
2021/12/01 00:25:29;;;;;;;11.40;5.20;;;5.30;80.50;;;;;;4983429;28;20593;-79
2021/12/01 00:27:57;;;;;;;8.63;4.77;;;5.30;80.20;;;;;;4976567;28;20212;-75
2021/12/01 00:30:27;;;;;;;9.87;4.83;;;5.30;80.20;;;;;;4973768;28;20729;-80
2021/12/01 00:32:56;;;;;;;8.80;4.70;;;5.30;80.20;;;;;;4967799;28;20236;-79
2021/12/01 00:35:27;;;;;;;8.90;4.90;;;5.40;80.10;;;;;;4956147;28;20209;-79
2021/12/01 00:37:55;;;;;;;9.37;4.30;;;5.30;80.10;;;;;;4956274;28;20626;-78
2021/12/01 00:40:27;;;;;;;9.00;4.67;;;5.30;80.20;;;;;;4957702;28;20199;-79
2021/12/01 00:42:57;;;;;;;9.03;4.70;;;5.40;80.30;;;;;;4959811;28;20199;-79
2021/12/01 00:45:28;;;;;;;7.67;4.50;;;5.40;80.40;;;;;;4950407;28;20198;-78
2021/12/01 00:47:57;;;;;;;8.13;4.33;;;5.40;80.50;;;;;;4956131;28;20209;-80
2021/12/01 00:50:27;;;;;;;7.53;4.23;;;5.40;80.50;;;;;;4969957;28;20209;-79
2021/12/01 00:52:59;;;;;;;7.37;3.97;;;5.40;80.70;;;;;;4967596;28;20209;-80
2021/12/01 00:55:28;;;;;;;8.13;4.03;;;5.40;80.60;;;;;;4954582;28;20212;-78
2021/12/01 00:57:57;;;;;;;8.33;4.03;;;5.40;80.60;;;;;;4953672;28;20261;-79
2021/12/01 01:00:29;;;;;;;7.57;4.47;;;5.40;80.50;;;;;;4958868;28;20209;-79
2021/12/01 01:02:58;;;;;;;6.80;4.10;;;5.40;80.50;;;;;;4971441;28;20237;-78
2021/12/01 01:05:27;;;;;;;7.17;3.87;;;5.40;80.10;;;;;;4967100;28;20640;-76
2021/12/01 01:07:56;;;;;;;6.17;4.03;;;5.40;80.00;;;;;;4968177;28;20198;-76
2021/12/01 01:10:34;;;;;;;7.60;3.93;;;5.30;79.70;;;;;;4961036;28;20201;-78
2021/12/01 01:16:23;;;;;;;6.53;3.43;;;5.30;79.50;;;;;;4955905;28;20205;-78
2021/12/01 01:18:58;;;;;;;6.97;3.70;;;5.30;79.50;;;;;;4956287;28;20264;-77
2021/12/01 01:21:30;;;;;;;7.37;3.67;;;5.20;79.10;;;;;;4962113;28;20204;-78
2021/12/01 01:23:59;;;;;;;7.73;3.27;;;5.20;79.20;;;;;;4960872;28;20197;-77
2021/12/01 01:26:28;;;;;;;5.67;3.23;;;5.20;79.20;;;;;;4972941;28;20198;-79
2021/12/01 01:28:57;;;;;;;6.13;3.93;;;5.20;79.10;;;;;;4962330;28;20190;-79
2021/12/01 01:31:26;;;;;;;5.50;3.17;;;5.20;78.70;;;;;;4967516;28;20832;-79
2021/12/01 01:33:57;;;;;;;8.83;3.40;;;5.20;79.10;;;;;;4987396;28;20189;-79
2021/12/01 01:36:26;;;;;;;4.60;2.67;;;5.20;78.90;;;;;;4985502;28;20197;-80
2021/12/01 01:38:58;;;;;;;6.40;3.00;;;5.20;78.60;;;;;;4985615;28;20703;-77
2021/12/01 01:41:26;;;;;;;5.63;3.27;;;5.20;78.50;;;;;;4987695;28;20197;-77
2021/12/01 01:43:55;;;;;;;6.67;3.20;;;5.20;78.40;;;;;;4981936;28;20890;-78
2021/12/01 01:46:23;;;;;;;5.43;2.47;;;5.20;77.90;;;;;;4985365;28;20189;-78
2021/12/01 01:48:54;;;;;;;5.00;3.10;;;5.20;78.00;;;;;;4996961;28;20657;-77
2021/12/01 01:51:25;;;;;;;3.57;2.30;;;5.20;78.00;;;;;;4984810;28;20608;-78
2021/12/01 01:53:56;;;;;;;4.40;2.37;;;5.20;77.70;;;;;;4987298;28;20193;-78
2021/12/01 01:56:26;;;;;;;4.57;2.70;;;5.20;77.60;;;;;;4988090;28;20189;-79
2021/12/01 01:58:56;;;;;;;5.70;2.67;;;5.20;77.90;;;;;;4988295;28;20199;-79
2021/12/01 02:01:44;;;;;;;8.60;2.87;;;5.20;77.90;;;;;;4984805;28;20196;-77
2021/12/01 02:04:16;;;;;;;6.10;2.50;;;5.20;77.90;;;;;;4981829;28;20224;-78
2021/12/01 02:06:46;;;;;;;4.77;2.70;;;5.20;77.70;;;;;;4981213;28;20197;-78
2021/12/01 02:09:16;;;;;;;5.37;2.33;;;5.20;77.80;;;;;;4990083;28;20466;-77
2021/12/01 02:11:44;;;;;;;5.17;2.83;;;5.20;77.90;;;;;;4972035;28;20205;-78
2021/12/01 02:14:13;;;;;;;4.20;2.40;;;5.20;77.60;;;;;;4987600;28;20192;-78
2021/12/01 02:16:41;;;;;;;4.87;3.03;;;5.20;77.50;;;;;;4994730;28;20882;-77
2021/12/01 02:19:10;;;;;;;3.77;2.23;;;5.20;77.50;;;;;;4982372;28;20822;-77
2021/12/01 02:21:40;;;;;;;5.23;2.53;;;5.30;77.60;;;;;;4982325;28;20193;-78
2021/12/01 02:24:10;;;;;;;3.33;2.27;;;5.30;77.70;;;;;;4986378;28;20280;-77
2021/12/01 02:26:41;;;;;;;3.67;2.30;;;5.30;77.50;;;;;;4984793;28;20196;-78
2021/12/01 02:29:12;;;;;;;3.97;2.30;;;5.30;77.50;;;;;;4983190;28;20204;-78
2021/12/01 02:31:40;;;;;;;4.47;2.17;;;5.30;77.30;;;;;;4977155;28;20208;-78
2021/12/01 02:34:11;;;;;;;3.90;2.50;;;5.40;77.40;;;;;;4982323;28;20682;-77
2021/12/01 02:36:41;;;;;;;3.67;2.13;;;5.40;77.30;;;;;;4979387;28;20695;-78
2021/12/01 02:39:14;;;;;;;2.87;1.93;;;5.40;76.80;;;;;;4976707;28;20208;-78
2021/12/01 02:41:42;;;;;;;5.23;2.23;;;5.40;76.30;;;;;;4983080;28;20198;-78
2021/12/01 02:44:12;;;;;;;3.70;2.10;;;5.40;76.40;;;;;;4979265;28;20228;-78
2021/12/01 02:46:40;;;;;;;3.30;2.07;;;5.40;76.30;;;;;;4978352;28;20193;-77
2021/12/01 02:49:09;;;;;;;2.63;1.80;;;5.30;76.00;;;;;;4978728;28;20267;-78
2021/12/01 02:51:37;;;;;;;8.13;2.20;;;5.40;76.10;;;;;;4983175;28;20204;-78
2021/12/01 02:54:08;;;;;;;3.93;2.23;;;5.40;76.30;;;;;;4978657;28;20208;-77
2021/12/01 02:56:38;;;;;;;2.93;1.80;;;5.40;76.00;;;;;;4977581;28;20281;-76
2021/12/01 02:59:07;;;;;;;3.13;2.13;;;5.40;76.30;;;;;;4980513;28;20198;-77
2021/12/01 03:01:36;;;;;;;2.63;1.70;;;5.40;76.00;;;;;;4980637;28;20193;-76
2021/12/01 03:04:05;;;;;;;3.23;2.20;;;5.40;75.70;;;;;;4984922;28;20635;-76
2021/12/01 03:06:35;;;;;;;9.10;2.10;;;5.30;75.70;;;;;;4981281;28;20224;-74
2021/12/01 03:09:07;;;;;;;2.97;1.77;;;5.30;74.80;;;;;;4981216;28;20197;-77
2021/12/01 03:11:37;;;;;;;4.43;2.20;;;5.30;74.70;;;;;;4984536;28;20209;-77
2021/12/01 03:14:09;;;;;;;3.17;1.83;;;5.20;74.50;;;;;;4981627;28;20201;-77
2021/12/01 03:16:37;;;;;;;3.50;2.20;;;5.20;74.50;;;;;;4979802;28;20202;-78
2021/12/01 03:19:06;;;;;;;3.57;2.17;;;5.20;75.00;;;;;;4976970;28;20245;-78
2021/12/01 03:21:36;;;;;;;4.17;2.13;;;5.20;74.70;;;;;;4975030;28;20417;-77
2021/12/01 03:24:07;;;;;;;3.80;1.77;;;5.20;74.80;;;;;;4986638;28;20203;-76
2021/12/01 03:26:36;;;;;;;2.90;1.70;;;5.20;75.00;;;;;;4985435;28;20193;-77
2021/12/01 03:29:07;;;;;;;4.07;2.27;;;5.20;75.10;;;;;;4983744;28;20196;-77
2021/12/01 03:31:36;;;;;;;3.97;2.43;;;5.20;75.50;;;;;;4983566;28;20332;-77
2021/12/01 03:34:05;;;;;;;7.03;2.40;;;5.20;75.40;;;;;;4990377;28;20696;-76
2021/12/01 03:36:34;;;;;;;5.73;2.60;;;5.10;75.60;;;;;;4982503;28;20192;-77
2021/12/01 03:39:02;;;;;;;5.00;2.43;;;5.10;75.80;;;;;;4978753;28;20540;-80
2021/12/01 03:41:34;;;;;;;3.67;2.00;;;5.10;76.00;;;;;;4982124;28;20201;-79
2021/12/01 03:44:03;;;;;;;4.77;2.30;;;5.10;76.10;;;;;;4978545;28;20809;-78
2021/12/01 03:46:31;;;;;;;7.40;2.47;;;5.00;76.00;;;;;;4980220;28;20221;-78
2021/12/01 03:49:02;;;;;;;5.63;2.13;;;5.10;76.30;;;;;;4979967;28;20232;-78
2021/12/01 03:51:31;;;;;;;4.20;2.33;;;5.10;76.30;;;;;;4971739;28;20221;-78
2021/12/01 03:53:59;;;;;;;3.63;2.30;;;5.10;76.30;;;;;;4971339;28;20203;-78
2021/12/01 03:56:29;;;;;;;4.90;2.53;;;5.10;76.40;;;;;;4977054;28;20204;-78
2021/12/01 03:58:59;;;;;;;5.03;2.60;;;5.10;76.50;;;;;;4986143;28;20189;-77
2021/12/01 04:01:28;;;;;;;5.27;2.80;;;5.10;76.60;;;;;;4982517;28;20197;-77
2021/12/01 04:03:58;;;;;;;4.67;2.70;;;5.10;76.60;;;;;;4975940;28;20203;-77
2021/12/01 04:06:26;;;;;;;4.27;2.60;;;5.10;76.70;;;;;;4971361;28;20579;-79
2021/12/01 04:08:55;;;;;;;5.17;2.70;;;5.10;76.70;;;;;;4981846;28;20698;-78
2021/12/01 04:11:23;;;;;;;4.50;2.73;;;5.10;76.70;;;;;;4986799;28;20208;-77
2021/12/01 04:13:56;;;;;;;5.70;2.60;;;5.10;76.70;;;;;;4989250;28;20206;-77
2021/12/01 04:16:25;;;;;;;4.07;2.43;;;5.10;76.70;;;;;;4976271;28;20190;-78
2021/12/01 04:18:54;;;;;;;4.17;2.50;;;5.20;76.70;;;;;;4984544;28;20199;-77
2021/12/01 04:21:24;;;;;;;4.77;2.43;;;5.20;76.70;;;;;;4981729;28;20638;-78
2021/12/01 04:23:53;;;;;;;3.47;2.20;;;5.10;76.50;;;;;;4980386;28;20197;-76
2021/12/01 04:26:23;;;;;;;4.07;2.20;;;5.00;76.30;;;;;;4984715;28;20216;-74
2021/12/01 04:28:53;;;;;;;5.60;2.70;;;5.00;76.50;;;;;;4981329;28;20202;-77
2021/12/01 04:31:22;;;;;;;3.23;2.10;;;5.00;76.60;;;;;;4981425;28;20196;-77
2021/12/01 04:33:51;;;;;;;7.80;2.73;;;5.00;76.90;;;;;;4982818;28;20201;-78
2021/12/01 04:36:21;;;;;;;4.73;2.97;;;5.00;76.90;;;;;;4983125;28;21547;-77
2021/12/01 04:38:49;;;;;;;8.03;2.20;;;5.00;76.70;;;;;;4987618;28;20234;-78
2021/12/01 04:41:17;;;;;;;5.23;2.43;;;5.00;76.70;;;;;;4986118;28;20216;-77
2021/12/01 04:43:47;;;;;;;4.40;2.60;;;5.00;77.00;;;;;;4989552;28;20806;-75
2021/12/01 04:46:19;;;;;;;4.67;2.20;;;5.00;76.90;;;;;;4985250;28;20209;-77
2021/12/01 04:48:49;;;;;;;4.70;2.73;;;5.00;76.70;;;;;;4983720;28;20189;-77
2021/12/01 04:51:18;;;;;;;4.63;2.30;;;4.90;76.90;;;;;;4979789;28;20201;-79
2021/12/01 04:53:47;;;;;;;3.43;2.10;;;4.90;77.30;;;;;;4977477;28;20201;-78
2021/12/01 04:56:18;;;;;;;4.23;2.30;;;4.90;77.60;;;;;;4985651;28;20194;-79
2021/12/01 04:58:48;;;;;;;3.77;2.30;;;5.00;77.50;;;;;;4985458;28;20212;-79
2021/12/01 05:01:17;;;;;;;4.80;2.70;;;5.00;77.20;;;;;;4980131;28;20336;-78
2021/12/01 05:03:45;;;;;;;3.47;2.17;;;5.00;77.20;;;;;;4977361;28;20198;-78
2021/12/01 05:06:16;;;;;;;4.10;2.57;;;5.00;76.90;;;;;;4973083;28;20247;-80
2021/12/01 05:08:46;;;;;;;4.53;2.87;;;5.00;77.00;;;;;;4982636;28;20690;-78
2021/12/01 05:11:14;;;;;;;3.57;2.37;;;5.00;77.10;;;;;;4985913;28;20201;-77
2021/12/01 05:13:53;;;;;;;4.83;2.50;;;5.10;77.20;;;;;;4985146;28;20201;-77
2021/12/01 05:16:22;;;;;;;6.33;2.47;;;5.00;76.80;;;;;;4984697;28;20189;-78
2021/12/01 05:18:50;;;;;;;5.37;2.43;;;5.00;77.10;;;;;;4987279;28;20204;-78
2021/12/01 05:21:19;;;;;;;3.17;2.17;;;5.10;77.10;;;;;;4987762;28;20209;-77
2021/12/01 05:23:49;;;;;;;3.43;2.20;;;5.10;77.10;;;;;;4985553;28;20205;-78
2021/12/01 05:26:17;;;;;;;3.77;2.33;;;5.10;77.10;;;;;;4976564;28;20217;-77
2021/12/01 05:28:46;;;;;;;4.53;2.10;;;5.20;77.20;;;;;;4985358;28;20200;-78
2021/12/01 05:31:14;;;;;;;5.73;2.47;;;5.20;77.20;;;;;;4985658;28;20198;-77
2021/12/01 05:33:43;;;;;;;3.73;2.30;;;5.30;77.20;;;;;;4998337;28;20232;-77
2021/12/01 05:36:11;;;;;;;5.97;2.70;;;5.30;77.30;;;;;;5002881;28;20227;-76
2021/12/01 05:38:39;;;;;;;3.23;1.90;;;5.30;77.30;;;;;;5001339;28;20196;-76
2021/12/01 05:41:09;;;;;;;4.87;2.07;;;5.40;77.30;;;;;;5005340;28;20839;-77
2021/12/01 05:43:38;;;;;;;7.30;2.30;;;5.40;77.20;;;;;;5006699;28;20200;-78
2021/12/01 05:46:06;;;;;;;3.73;2.00;;;5.40;77.00;;;;;;4997995;28;20223;-77
2021/12/01 05:48:35;;;;;;;3.80;2.33;;;5.40;77.20;;;;;;5006217;28;20205;-78
2021/12/01 05:51:03;;;;;;;4.83;3.13;;;5.40;77.00;;;;;;5001069;28;20703;-78
2021/12/01 05:53:32;;;;;;;4.53;2.40;;;5.40;77.00;;;;;;5002718;28;21015;-78
2021/12/01 05:56:01;;;;;;;3.47;2.00;;;5.40;77.10;;;;;;5002919;28;20188;-79
2021/12/01 05:58:30;;;;;;;4.23;2.20;;;5.50;77.20;;;;;;4996740;28;21062;-78
2021/12/01 06:00:59;;;;;;;3.17;1.97;;;5.50;77.10;;;;;;4997894;28;20211;-76
2021/12/01 06:03:28;;;;;;;4.53;2.23;;;5.60;77.20;;;;;;4993906;28;20192;-77
2021/12/01 06:05:56;;;;;;;3.67;2.03;;;5.60;77.10;;;;;;4997708;28;20205;-78
2021/12/01 06:08:25;;;;;;;5.80;1.87;;;5.60;77.10;;;;;;4995757;28;20257;-78
2021/12/01 06:10:53;;;;;;;4.93;2.70;;;5.60;76.90;;;;;;5002770;28;20201;-78
2021/12/01 06:13:22;;;;;;;3.97;1.87;;;5.70;77.10;;;;;;4999013;28;20190;-75
2021/12/01 06:15:55;;;;;;;3.00;1.70;;;5.70;77.20;;;;;;5002345;28;20666;-74
2021/12/01 06:18:24;;;;;;;4.87;1.90;;;5.70;77.10;;;;;;5001248;28;20304;-77
2021/12/01 06:20:52;;;;;;;6.87;2.83;;;5.80;77.20;;;;;;5000606;28;20207;-76
2021/12/01 06:23:20;;;;;;;3.27;1.80;;;5.80;77.10;;;;;;5001648;28;20204;-77
2021/12/01 06:25:49;;;;;;;4.37;2.07;;;5.80;77.20;;;;;;4996366;28;20205;-77
2021/12/01 06:28:17;;;;;;;4.37;2.00;;;5.90;77.20;;;;;;5000347;28;20844;-77
2021/12/01 06:30:45;;;;;;;3.47;1.90;;;5.90;77.30;;;;;;4995720;28;20883;-80
2021/12/01 06:33:15;;;;;;;3.93;2.00;;;6.00;77.10;;;;;;5002263;28;20260;-78
2021/12/01 06:35:48;;;;;;;4.03;2.20;;;6.00;77.10;;;;;;4999764;28;20623;-77
2021/12/01 06:38:18;;;;;;;4.43;2.53;;;6.00;77.10;;;;;;5002606;28;20193;-78
2021/12/01 06:40:48;;;;;;;3.73;1.93;;;6.00;77.10;;;;;;4988523;28;20205;-78
2021/12/01 06:43:17;;;;;;;4.60;2.40;;;6.10;77.30;;;;;;5001201;28;20197;-77
2021/12/01 06:45:47;;;;;;;4.13;2.40;;;6.10;77.30;;;;;;4999783;28;20208;-78
2021/12/01 06:48:17;;;;;;;4.67;2.47;;;6.20;77.40;;;;;;5004686;28;20740;-77
2021/12/01 06:50:45;;;;;;;5.17;2.47;;;6.20;77.50;;;;;;4999698;28;20192;-75
2021/12/01 06:53:13;;;;;;;5.00;2.03;;;6.30;77.40;;;;;;5005821;28;20205;-77
2021/12/01 06:55:42;;;;;;;3.53;2.43;;;6.30;77.40;;;;;;5005859;28;20193;-77
2021/12/01 06:58:11;;;;;;;8.47;2.50;;;6.30;77.50;;;;;;5007490;28;20209;-79
2021/12/01 07:00:39;;;;;;;6.07;2.23;;;6.40;77.60;;;;;;5006536;28;20733;-77
2021/12/01 07:03:07;;;;;;;5.97;2.60;;;6.40;77.60;;;;;;5004953;28;20280;-78
2021/12/01 07:05:38;;;;;;;5.63;2.20;;;6.40;77.50;;;;;;5008635;28;20224;-79
2021/12/01 07:08:06;;;;;;;4.17;2.00;;;6.50;77.70;;;;;;5005606;28;20206;-77
2021/12/01 07:10:40;;;;;;;6.97;2.03;;;6.50;77.60;;;;;;5005066;28;20252;-78
2021/12/01 07:13:09;;;;;;;3.77;1.97;;;6.60;77.70;;;;;;5003868;28;20593;-77
2021/12/01 07:15:37;;;;;;;4.20;2.07;;;6.70;77.70;;;;;;5006989;28;20713;-78
2021/12/01 07:18:05;;;;;;;4.53;2.20;;;6.80;77.70;;;;;;4999599;28;20870;-78
2021/12/01 07:20:34;;;;;;;8.80;2.57;;;6.90;77.50;;;;;;5000635;28;20649;-76
2021/12/01 07:23:04;;;;;;;3.47;1.83;;;6.90;77.50;;;;;;5005021;28;20205;-78
2021/12/01 07:25:37;;;;;;;3.97;2.43;;;6.90;77.30;;;;;;5003313;28;20199;-77
2021/12/01 07:28:05;;;;;;;3.47;2.00;;;7.00;77.20;;;;;;5006758;28;20219;-77
2021/12/01 07:30:35;;;;;;;4.23;1.90;;;7.10;76.70;;;;;;5002461;28;20676;-79
2021/12/01 07:33:03;;;;;;;3.77;2.10;;;7.10;76.90;;;;;;4998371;28;20238;-78
2021/12/01 07:35:32;;;;;;;4.50;2.00;;;7.20;76.80;;;;;;5005770;28;20749;-79
2021/12/01 07:38:00;;;;;;;4.93;2.10;;;7.20;76.90;;;;;;5005570;28;20203;-81
2021/12/01 07:40:30;;;;;;;5.97;1.63;;;7.40;77.10;;;;;;5004560;28;20204;-79
2021/12/01 07:42:58;;;;;;;4.53;2.10;;;7.40;76.50;;;;;;5005904;28;20208;-78
2021/12/01 07:45:27;;;;;;;3.43;1.70;;;7.50;76.30;;;;;;5005320;28;20223;-78
2021/12/01 07:47:55;;;;;;;6.63;1.80;;;7.50;76.30;;;;;;5007407;28;20231;-81
2021/12/01 07:50:24;;;;;;;3.67;1.93;;;7.60;76.30;;;;;;5004674;28;20563;-78
2021/12/01 07:52:52;;;;;;;3.63;1.90;;;7.70;76.30;;;;;;4995600;28;20201;-78
2021/12/01 07:55:21;;;;;;;5.43;2.40;;;7.70;76.30;;;;;;5008087;28;20206;-79
2021/12/01 07:57:50;;;;;;;5.53;2.70;;;7.70;76.30;;;;;;5005631;28;20728;-79
2021/12/01 08:00:19;;;;;;;4.83;2.30;;;7.80;76.50;;;;;;5005807;28;20203;-77
2021/12/01 08:02:47;;;;;;;5.47;2.00;;;7.90;76.50;;;;;;5004797;28;20242;-77
2021/12/01 08:05:15;;;;;;;2.93;2.00;;;8.00;76.30;;;;;;5004383;28;20283;-79
2021/12/01 08:07:44;;;;;;;6.90;2.20;;;8.10;76.30;;;;;;5000119;28;20234;-78
2021/12/01 08:10:14;;;;;;;3.20;1.90;;;8.10;76.30;;;;;;5005678;28;20560;-81
2021/12/01 08:12:43;;;;;;;5.00;2.30;;;8.20;76.30;;;;;;5002327;28;20221;-78
2021/12/01 08:15:13;;;;;;;5.07;1.83;;;8.30;77.10;;;;;;5005951;28;20207;-80
2021/12/01 08:17:41;;;;;;;3.90;2.23;;;8.40;76.30;;;;;;5010459;28;20201;-78
2021/12/01 08:20:10;;;;;;;4.73;2.03;;;8.40;76.20;;;;;;5004431;28;20206;-81
2021/12/01 08:22:38;;;;;;;4.80;2.10;;;8.50;75.90;;;;;;5004650;28;20571;-80
2021/12/01 08:25:07;;;;;;;6.93;2.13;;;8.60;76.00;;;;;;5007200;28;20593;-78
2021/12/01 08:27:36;;;;;;;3.80;2.20;;;8.60;76.10;;;;;;5001367;28;20216;-80
2021/12/01 08:30:06;;;;;;;5.03;2.03;;;8.70;75.80;;;;;;5006650;28;20192;-79
2021/12/01 08:32:36;;;;;;;4.37;2.20;;;8.70;75.60;;;;;;4995760;28;20225;-76
2021/12/01 08:35:08;;;;;;;4.93;2.20;;;8.80;75.50;;;;;;4984208;28;20192;-81
2021/12/01 08:37:36;;;;;;;3.43;1.73;;;8.80;76.80;;;;;;4984566;28;20193;-79
2021/12/01 08:40:06;;;;;;;3.97;1.90;;;8.90;76.20;;;;;;4989698;28;20197;-76
2021/12/01 08:42:34;;;;;;;3.57;1.80;;;8.90;76.40;;;;;;4985950;28;20201;-79
2021/12/01 08:45:03;;;;;;;8.63;2.50;;;8.90;76.50;;;;;;4994480;28;20946;-79
2021/12/01 08:47:32;;;;;;;4.77;2.20;;;9.00;77.00;;;;;;4988477;28;20213;-78
2021/12/01 08:50:02;;;;;;;5.83;2.00;;;9.10;77.40;;;;;;4988714;28;20200;-78
2021/12/01 08:52:30;;;;;;;4.63;2.33;;;9.20;77.10;;;;;;4989253;28;20197;-77
2021/12/01 08:54:59;;;;;;;3.77;1.93;;;9.30;76.80;;;;;;4986665;28;20240;-79
2021/12/01 08:57:27;;;;;;;6.60;2.83;;;9.50;76.90;;;;;;4991362;28;20197;-78
2021/12/01 08:59:56;;;;;;;5.57;2.00;;;9.60;76.80;;;;;;4989021;28;20201;-77
2021/12/01 09:02:24;;;;;;;5.40;1.80;;;9.60;75.80;;;;;;4992127;28;20209;-77
2021/12/01 09:04:53;;;;;;;4.73;2.40;;;9.80;76.30;;;;;;4993325;28;20196;-78
2021/12/01 09:07:23;;;;;;;3.10;1.90;;;9.90;76.20;;;;;;4988477;28;20792;-77
2021/12/01 09:09:51;;;;;;;4.07;1.93;;;10.00;76.30;;;;;;4989329;28;20197;-78
2021/12/01 09:12:21;;;;;;;3.87;2.00;;;10.10;75.50;;;;;;4988764;28;20193;-79
2021/12/01 09:14:51;;;;;;;5.63;2.37;;;10.20;75.50;;;;;;4988353;28;20197;-81
2021/12/01 09:17:20;;;;;;;3.33;2.27;;;10.20;74.70;;;;;;4978895;28;20204;-80
2021/12/01 09:19:49;;;;;;;3.50;2.10;;;10.30;74.10;;;;;;4980978;28;20713;-77
2021/12/01 09:22:22;;;;;;;3.43;1.60;;;10.30;74.50;;;;;;4985691;28;20197;-78
2021/12/01 09:24:51;;;;;;;3.17;1.83;;;10.50;75.10;;;;;;4984392;28;20217;-76
2021/12/01 09:27:19;;;;;;;3.40;2.10;;;10.50;74.40;;;;;;4984943;28;20197;-79
2021/12/01 09:29:48;;;;;;;4.83;2.20;;;10.60;74.10;;;;;;4987915;28;20196;-78
2021/12/01 09:32:16;;;;;;;6.20;2.10;;;10.60;74.00;;;;;;4994980;28;20307;-77
2021/12/01 09:34:45;;;;;;;6.40;2.20;;;10.60;73.40;;;;;;5007517;28;20203;-77
2021/12/01 09:37:13;;;;;;;4.80;1.80;;;10.70;73.80;;;;;;5000732;28;20205;-79
2021/12/01 09:39:43;;;;;;;3.80;1.77;;;10.70;73.60;;;;;;5003885;28;20208;-79
2021/12/01 09:42:13;;;;;;;3.60;1.53;;;10.80;73.80;;;;;;4998670;28;20205;-80
2021/12/01 09:44:41;;;;;;;3.67;1.77;;;10.90;73.60;;;;;;5005250;28;20238;-78
2021/12/01 09:47:10;;;;;;;4.90;1.80;;;10.90;73.30;;;;;;5000340;28;20252;-78
2021/12/01 09:49:38;;;;;;;4.60;1.83;;;10.90;73.30;;;;;;5006540;28;20232;-78
2021/12/01 09:52:08;;;;;;;4.00;2.07;;;10.90;73.50;;;;;;5007884;28;20197;-78
2021/12/01 09:54:38;;;;;;;5.13;1.50;;;11.00;73.90;;;;;;5007160;28;20576;-77
2021/12/01 09:57:12;;;;;;;2.93;1.53;;;11.10;74.40;;;;;;5007960;28;20279;-77
2021/12/01 09:59:44;;;;;;;6.30;1.77;;;11.20;74.10;;;;;;5000868;28;20223;-77
2021/12/01 10:02:13;;;;;;;7.03;2.10;;;11.30;73.80;;;;;;5006610;28;20197;-78
2021/12/01 10:04:42;;;;;;;3.87;1.50;;;11.40;73.60;;;;;;5000392;28;20196;-78
2021/12/01 10:07:15;;;;;;;2.80;1.40;;;11.40;73.40;;;;;;5007244;28;20196;-79
2021/12/01 10:09:45;;;;;;;3.57;1.80;;;11.50;73.40;;;;;;5006632;28;20212;-77
2021/12/01 10:12:16;;;;;;;3.63;1.70;;;11.60;73.30;;;;;;5007547;28;20226;-76
2021/12/01 10:14:46;;;;;;;2.40;1.40;;;11.60;72.40;;;;;;5005879;28;20196;-74
2021/12/01 10:17:15;;;;;;;4.43;2.07;;;11.60;71.60;;;;;;5003239;28;20204;-77
2021/12/01 10:19:44;;;;;;;4.43;1.40;;;11.60;72.30;;;;;;5005908;28;20188;-77
2021/12/01 10:22:13;;;;;;;5.10;1.67;;;11.70;72.50;;;;;;5006738;28;20810;-77
2021/12/01 10:24:45;;;;;;;3.93;2.00;;;11.70;72.50;;;;;;5005403;28;20193;-77
2021/12/01 10:27:15;;;;;;;3.07;1.47;;;11.80;72.20;;;;;;5007424;28;20180;-78
2021/12/01 10:29:48;;;;;;;2.57;1.50;;;11.80;71.80;;;;;;5007172;28;20212;-77
2021/12/01 10:32:18;;;;;;;4.23;2.20;;;11.90;71.60;;;;;;5003475;28;20235;-77
2021/12/01 10:34:50;;;;;;;5.27;1.67;;;11.90;71.70;;;;;;4989192;28;20193;-76
2021/12/01 10:37:23;;;;;;;3.87;2.10;;;11.90;71.60;;;;;;4992478;28;20911;-76
2021/12/01 10:40:07;;;;;;;2.67;1.70;;;12.00;72.20;;;;;;4980288;28;20194;-75
2021/12/01 10:42:52;;;;;;;3.60;1.77;;;12.00;71.60;;;;;;4990240;28;20192;-74
2021/12/01 10:45:22;;;;;;;5.67;1.67;;;12.10;71.80;;;;;;4994655;28;20192;-75
2021/12/01 10:47:51;;;;;;;4.60;1.60;;;12.20;71.70;;;;;;4992400;28;20192;-76
2021/12/01 10:50:21;;;;;;;3.17;1.70;;;12.20;71.70;;;;;;4983228;28;20584;-75
2021/12/01 10:52:52;;;;;;;4.17;1.53;;;12.20;71.40;;;;;;4983756;28;20185;-74
2021/12/01 10:55:23;;;;;;;3.87;1.90;;;12.30;71.00;;;;;;4985317;28;20189;-76
2021/12/01 10:57:57;;;;;;;2.80;1.37;;;12.40;71.10;;;;;;4980129;28;20197;-74
2021/12/01 11:00:28;;;;;;;2.87;1.33;;;12.50;70.60;;;;;;4985539;28;20197;-77
2021/12/01 11:03:06;;;;;;;2.70;1.37;;;12.50;71.30;;;;;;4978034;28;20181;-79
2021/12/01 11:05:36;;;;;;;3.33;1.60;;;12.60;71.50;;;;;;4987714;28;20185;-79
2021/12/01 11:08:16;;;;;;;5.07;2.20;;;12.80;71.60;;;;;;4990434;28;20851;-79
2021/12/01 11:10:47;;;;;;;4.17;1.70;;;12.90;70.60;;;;;;4990949;28;20565;-77
2021/12/01 11:13:17;;;;;;;3.33;1.67;;;12.90;68.80;;;;;;4973581;28;20867;-76
2021/12/01 11:15:52;;;;;;;2.97;1.80;;;12.90;68.40;;;;;;4984278;28;20218;-77
2021/12/01 11:18:43;;;;;;;4.77;2.23;;;12.90;68.10;;;;;;4971285;28;20198;-76
2021/12/01 11:21:14;;;;;;;4.23;2.40;;;12.90;68.80;;;;;;4979460;28;20236;-76
2021/12/01 11:23:45;;;;;;;9.47;5.03;;;13.00;69.70;;;;;;4939508;28;20200;-78
2021/12/01 11:26:19;;;;;;;3.07;1.67;;;13.10;69.10;;;;;;4978365;28;20216;-80
2021/12/01 11:28:51;;;;;;;4.60;2.00;;;13.20;68.90;;;;;;4991836;28;20212;-77
2021/12/01 11:31:23;;;;;;;3.40;1.80;;;13.20;69.00;;;;;;4984960;28;20193;-78
2021/12/01 11:33:55;;;;;;;4.53;1.77;;;13.30;68.30;;;;;;4984767;28;20185;-79
2021/12/01 11:36:26;;;;;;;3.83;1.50;;;13.30;68.00;;;;;;4985390;28;20189;-78
2021/12/01 11:38:57;;;;;;;2.57;1.50;;;13.40;67.60;;;;;;4986415;28;20178;-79
2021/12/01 11:41:27;;;;;;;6.07;1.80;;;13.40;67.20;;;;;;4977676;28;20914;-79
2021/12/01 11:43:58;;;;;;;3.27;1.90;;;13.40;67.80;;;;;;4985729;28;20233;-77
2021/12/01 11:46:30;;;;;;;3.80;1.80;;;13.50;67.00;;;;;;4986356;28;20196;-78
2021/12/01 11:49:04;;;;;;;4.00;1.50;;;13.50;67.00;;;;;;4977470;28;20216;-77
2021/12/01 11:51:40;;;;;;;1.97;1.10;;;13.60;65.70;;;;;;4980472;28;20678;-74
2021/12/01 11:54:13;;;;;;;4.50;1.37;;;13.60;65.00;;;;;;4987095;28;20185;-77
2021/12/01 11:56:52;;;;;;;3.40;1.57;;;13.60;64.70;;;;;;4984634;28;20199;-78
2021/12/01 11:59:25;;;;;;;3.83;1.43;;;13.60;64.40;;;;;;4984033;28;20887;-77
2021/12/01 12:02:04;;;;;;;2.63;1.30;;;13.60;65.10;;;;;;4976780;28;20193;-78
2021/12/01 12:04:51;;;;;;;5.07;1.97;;;13.70;65.10;;;;;;4983021;28;20186;-78
2021/12/01 12:07:23;;;;;;;2.87;1.50;;;13.70;64.70;;;;;;4978886;28;20572;-79
2021/12/01 12:10:08;;;;;;;3.40;1.70;;;13.80;65.50;;;;;;4986095;28;20381;-79
2021/12/01 12:12:48;;;;;;;8.43;4.00;;;13.80;65.60;;;;;;4981443;28;20272;-77
2021/12/01 12:15:36;;;;;;;2.23;1.30;;;13.90;65.70;;;;;;4981706;28;20860;-77
2021/12/01 12:18:05;;;;;;;11.87;4.97;;;13.90;64.40;;;;;;4974610;28;20216;-76
2021/12/01 12:20:40;;;;;;;3.93;1.77;;;14.00;64.40;;;;;;4984252;28;20208;-78
2021/12/01 12:23:10;;;;;;;3.73;1.70;;;14.10;63.20;;;;;;4982513;28;20204;-78
2021/12/01 12:25:48;;;;;;;2.13;1.13;;;14.10;64.00;;;;;;4989546;28;20654;-77
2021/12/01 12:28:34;;;;;;;2.83;1.03;;;14.20;62.80;;;;;;4983486;28;20269;-76
2021/12/01 12:31:07;;;;;;;1.90;1.10;;;14.20;61.70;;;;;;4986824;28;20229;-76
2021/12/01 12:33:38;;;;;;;3.73;1.50;;;14.30;62.10;;;;;;4999663;28;20223;-78
2021/12/01 12:36:09;;;;;;;3.30;1.73;;;14.30;60.40;;;;;;5006174;28;20199;-78
2021/12/01 12:38:38;;;;;;;7.23;3.20;;;14.30;60.30;;;;;;5005779;28;20177;-77
2021/12/01 12:41:11;;;;;;;4.93;2.53;;;14.30;59.90;;;;;;5005158;28;20193;-78
2021/12/01 12:43:41;;;;;;;8.83;3.80;;;14.30;59.90;;;;;;5005342;28;20203;-78
2021/12/01 12:46:15;;;;;;;5.07;1.93;;;14.40;61.50;;;;;;5005415;28;20189;-79
2021/12/01 12:48:48;;;;;;;4.97;2.20;;;14.40;59.10;;;;;;5004988;28;20220;-78
2021/12/01 12:51:21;;;;;;;3.73;2.10;;;14.40;58.70;;;;;;5004839;28;20761;-78
2021/12/01 12:54:17;;;;;;;8.87;3.40;;;14.50;60.20;;;;;;5006063;28;20184;-78
2021/12/01 12:56:55;;;;;;;3.70;1.60;;;14.60;60.30;;;;;;5005884;28;20561;-78
2021/12/01 12:59:30;;;;;;;4.03;1.30;;;14.70;59.30;;;;;;4998071;28;20191;-78
2021/12/01 13:02:33;;;;;;;3.33;1.57;;;14.90;59.50;;;;;;4997237;28;20196;-78
2021/12/01 13:05:05;;;;;;;4.23;1.73;;;15.10;59.60;;;;;;5004812;28;20189;-79
2021/12/01 13:07:36;;;;;;;4.10;2.10;;;15.50;60.10;;;;;;5008859;28;20216;-79
2021/12/01 13:10:08;;;;;;;5.53;1.57;;;15.70;59.10;;;;;;4997123;28;20233;-78
2021/12/01 13:12:52;;;;;;;3.08;1.33;;;15.90;58.20;;;;;;5008324;28;20189;-79